Concerto — JJ3855 — position and weather

sailwx.info

Track history (hours):
 
Tides and Currents Weather Stations Pressure Air Temp Water Temp Dewpoint Dewpoint Depression Visibility Wind Speed Wind Dir Waves Ship Positions

Concerto

Last reported at 2015-Aug-27 03:33 UTC. Time now 2015-Aug-29 14:47 UTC.
Position N 34°38' E 135°10'.

Length 74 m; draft 3 m.

Type: Passenger vessel. MMSI: 431000448.

Date/timePositionNaut miles runAvg speedWind from/ knotsBaromVisibWave heightAir tempDewpointWater temp
2015-Aug-27 03:33N 34°38' E 135°10'3 2.7
2015-Aug-27 02:31N 34°41' E 135°11'0 0.0
2015-Aug-27 01:25N 34°41' E 135°11'0 0.0
2015-Aug-27 00:31N 34°41' E 135°11'0 0.0
2015-Aug-26 23:31N 34°41' E 135°11'0 0.0
2015-Aug-26 22:31N 34°41' E 135°11'0 0.0
2015-Aug-26 21:13N 34°41' E 135°11'0 0.0
2015-Aug-26 20:31N 34°41' E 135°11'0 0.0
2015-Aug-26 19:25N 34°41' E 135°11'0 0.0
2015-Aug-26 18:31N 34°41' E 135°11'0 0.0
2015-Aug-26 17:31N 34°41' E 135°11'0 0.0
2015-Aug-26 16:31N 34°41' E 135°11'0 0.0
2015-Aug-26 15:25N 34°41' E 135°11'0 0.0
2015-Aug-26 14:31N 34°41' E 135°11'0 0.0
2015-Aug-26 13:31N 34°41' E 135°11'0 0.0
2015-Aug-26 12:31N 34°41' E 135°11'3 3.3
2015-Aug-26 11:33N 34°38' E 135°10'3 3.0
2015-Aug-26 10:33N 34°40' E 135°11'1 1.2
2015-Aug-26 09:33N 34°39' E 135°11'1 0.7
2015-Aug-26 08:33N 34°39' E 135°11'2 2.1
2015-Aug-26 07:32N 34°41' E 135°11'3 3.3
2015-Aug-26 06:33N 34°38' E 135°10'3 3.1
2015-Aug-26 05:31N 34°41' E 135°11'0 0.5
2015-Aug-26 04:34N 34°40' E 135°11'3 2.8
2015-Aug-26 03:33N 34°38' E 135°10'3 2.9
2015-Aug-26 02:30N 34°41' E 135°11'0 0.0
2015-Aug-26 01:30N 34°41' E 135°11'0 0.0
2015-Aug-26 00:30N 34°41' E 135°11'0 0.0
2015-Aug-25 23:30N 34°41' E 135°11'0 0.0
2015-Aug-25 22:30N 34°41' E 135°11'0 0.0
2015-Aug-25 21:30N 34°41' E 135°11'0 0.0
2015-Aug-25 20:30N 34°41' E 135°11'0 0.0
2015-Aug-25 19:30N 34°41' E 135°11'0 0.0
2015-Aug-25 18:24N 34°41' E 135°11'0 0.0
2015-Aug-25 17:30N 34°41' E 135°11'0 0.0
2015-Aug-25 16:30N 34°41' E 135°11'0 0.0
2015-Aug-25 15:30N 34°41' E 135°11'0 0.0
2015-Aug-25 14:30N 34°41' E 135°11'0 0.0
2015-Aug-25 13:30N 34°41' E 135°11'0 0.0
2015-Aug-25 12:30N 34°41' E 135°11'3 3.0
2015-Aug-25 11:33N 34°38' E 135°11'2 2.3
2015-Aug-25 10:33N 34°40' E 135°11'0 0.2
2015-Aug-25 09:33N 34°40' E 135°12'1 1.3
2015-Aug-25 08:33N 34°39' E 135°11'2 1.8
2015-Aug-25 07:31N 34°41' E 135°11'3 3.1
2015-Aug-25 06:34N 34°38' E 135°10'3 2.9
2015-Aug-25 05:31N 34°41' E 135°11'0 0.4
2015-Aug-25 04:33N 34°41' E 135°11'3 2.7
2015-Aug-25 03:33N 34°38' E 135°10'3 2.4
2015-Aug-25 02:23N 34°41' E 135°11'0 0.0
2015-Aug-24 12:24N 34°41' E 135°11'3 3.6
2015-Aug-24 11:33N 34°38' E 135°11'2 2.1
2015-Aug-24 10:33N 34°40' E 135°11'1 0.7
2015-Aug-24 09:33N 34°39' E 135°11'1 0.7
2015-Aug-24 08:33N 34°39' E 135°11'2 1.9
2015-Aug-24 07:25N 34°41' E 135°11'3 3.8
2015-Aug-24 06:33N 34°38' E 135°09'3 3.2
2015-Aug-24 05:33N 34°41' E 135°11'0 0.3
2015-Aug-24 04:33N 34°41' E 135°11'3 3.3
2015-Aug-24 03:33N 34°38' E 135°09'3 3.4
2015-Aug-24 02:33N 34°41' E 135°11'0 0.0
2015-Aug-24 01:33N 34°41' E 135°11'0 0.0
2015-Aug-24 00:33N 34°41' E 135°11'0 0.0
2015-Aug-23 23:33N 34°41' E 135°11'0 0.0
2015-Aug-23 22:33N 34°41' E 135°11'0 0.0
2015-Aug-23 21:33N 34°41' E 135°11'0 0.0
2015-Aug-23 20:33N 34°41' E 135°11'0 0.0
2015-Aug-23 19:33N 34°41' E 135°11'0 0.0
2015-Aug-23 18:33N 34°41' E 135°11'0 0.0
2015-Aug-23 17:33N 34°41' E 135°11'0 0.0
2015-Aug-23 16:33N 34°41' E 135°11'0 0.0
2015-Aug-23 15:33N 34°41' E 135°11'0 0.0
2015-Aug-23 14:33N 34°41' E 135°11'0 0.0
2015-Aug-23 13:33N 34°41' E 135°11'0 0.0
2015-Aug-23 12:33N 34°41' E 135°11'3 2.9
2015-Aug-23 11:33N 34°38' E 135°10'2 2.3
2015-Aug-23 10:33N 34°40' E 135°11'2 1.6
2015-Aug-23 09:33N 34°39' E 135°11'0 0.2
2015-Aug-23 08:33N 34°39' E 135°11'2 1.9
2015-Aug-23 07:28N 34°41' E 135°11'3 3.8
2015-Aug-23 06:33N 34°38' E 135°09'3 3.3
2015-Aug-23 05:32N 34°41' E 135°11'1 0.8
2015-Aug-23 04:33N 34°40' E 135°12'3 2.7
2015-Aug-23 03:33N 34°38' E 135°09'1 0.1
2015-Aug-22 11:33N 34°38' E 135°10'2 2.4
2015-Aug-22 10:33N 34°40' E 135°11'1 1.0
2015-Aug-22 09:33N 34°39' E 135°11'1 0.6
2015-Aug-22 08:33N 34°39' E 135°11'2 2.1
2015-Aug-22 07:32N 34°41' E 135°11'3 3.5
2015-Aug-22 06:33N 34°38' E 135°10'3 3.3
2015-Aug-22 05:29N 34°41' E 135°11'1 0.9
2015-Aug-22 04:33N 34°40' E 135°12'3 2.5
2015-Aug-22 03:33N 34°38' E 135°09'3 0.2
2015-Aug-21 12:08N 34°41' E 135°11'3 5.6
2015-Aug-21 11:33N 34°38' E 135°10'3 2.9
2015-Aug-21 10:33N 34°40' E 135°11'1 1.0
2015-Aug-21 09:33N 34°39' E 135°11'1 0.7
2015-Aug-21 08:33N 34°39' E 135°11'2 2.0
2015-Aug-21 07:28N 34°41' E 135°11'3 3.4
2015-Aug-21 06:33N 34°38' E 135°10'3 3.1
2015-Aug-21 05:33N 34°41' E 135°11'1 0.9
2015-Aug-21 04:33N 34°40' E 135°11'3 2.6
2015-Aug-21 03:33N 34°38' E 135°09'1 0.1
2015-Aug-20 11:33N 34°38' E 135°11'2 1.8
2015-Aug-20 10:33N 34°40' E 135°11'1 0.8
2015-Aug-20 09:33N 34°39' E 135°11'0 0.4
2015-Aug-20 08:32N 34°39' E 135°11'2 2.0
2015-Aug-20 07:31N 34°41' E 135°11'3 3.0
2015-Aug-20 06:33N 34°38' E 135°10'3 2.7
2015-Aug-20 05:30N 34°41' E 135°11'0 0.3
2015-Aug-20 04:33N 34°41' E 135°11'3 3.3
2015-Aug-20 03:33N 34°38' E 135°09'1 0.1
2015-Aug-19 11:33N 34°38' E 135°10'2 2.3
2015-Aug-19 10:33N 34°40' E 135°11'0 0.4
2015-Aug-19 09:33N 34°39' E 135°11'1 1.0
2015-Aug-19 08:33N 34°39' E 135°11'2 2.1
2015-Aug-19 07:31N 34°41' E 135°11'3 3.1
2015-Aug-19 06:33N 34°38' E 135°10'3 2.9
2015-Aug-19 05:31N 34°41' E 135°11'0 0.2
2015-Aug-19 04:33N 34°41' E 135°11'3 3.2
2015-Aug-19 03:33N 34°38' E 135°09'3 0.1
2015-Aug-17 18:28N 34°41' E 135°11'0 0.0
2015-Aug-17 17:28N 34°41' E 135°11'0 0.0
2015-Aug-17 16:28N 34°41' E 135°11'0 0.0
2015-Aug-17 15:28N 34°41' E 135°11'0 0.0
2015-Aug-17 14:28N 34°41' E 135°11'0 0.0
2015-Aug-17 13:28N 34°41' E 135°11'0 0.0
2015-Aug-17 12:28N 34°41' E 135°11'3 3.1
2015-Aug-17 11:33N 34°38' E 135°11'2 1.8
2015-Aug-17 10:33N 34°40' E 135°11'1 0.5
2015-Aug-17 09:33N 34°39' E 135°11'1 0.8
2015-Aug-17 08:33N 34°39' E 135°11'2 2.2
2015-Aug-17 07:33N 34°41' E 135°11'3 2.7
2015-Aug-17 06:33N 34°38' E 135°10'3 2.6
2015-Aug-17 05:31N 34°41' E 135°11'0 0.4
2015-Aug-17 04:33N 34°40' E 135°11'  
Track history (hours):
 
Tides and Currents Weather Stations Pressure Air Temp Water Temp Dewpoint Dewpoint Depression Visibility Wind Speed Wind Dir Waves Ship Positions

Concerto

Last reported at 2015-Aug-27 03:33 UTC. Time now 2015-Aug-29 14:47 UTC.
Position N 34°38' E 135°10'.

Length 74 m; draft 3 m.

Type: Passenger vessel. MMSI: 431000448.

Date/timePositionNaut miles runAvg speedWind from/ knotsBaromVisibWave heightAir tempDewpointWater temp
2015-Aug-27 03:33N 34°38' E 135°10'3 2.7
2015-Aug-27 02:31N 34°41' E 135°11'0 0.0
2015-Aug-27 01:25N 34°41' E 135°11'0 0.0
2015-Aug-27 00:31N 34°41' E 135°11'0 0.0
2015-Aug-26 23:31N 34°41' E 135°11'0 0.0
2015-Aug-26 22:31N 34°41' E 135°11'0 0.0
2015-Aug-26 21:13N 34°41' E 135°11'0 0.0
2015-Aug-26 20:31N 34°41' E 135°11'0 0.0
2015-Aug-26 19:25N 34°41' E 135°11'0 0.0
2015-Aug-26 18:31N 34°41' E 135°11'0 0.0
2015-Aug-26 17:31N 34°41' E 135°11'0 0.0
2015-Aug-26 16:31N 34°41' E 135°11'0 0.0
2015-Aug-26 15:25N 34°41' E 135°11'0 0.0
2015-Aug-26 14:31N 34°41' E 135°11'0 0.0
2015-Aug-26 13:31N 34°41' E 135°11'0 0.0
2015-Aug-26 12:31N 34°41' E 135°11'3 3.3
2015-Aug-26 11:33N 34°38' E 135°10'3 3.0
2015-Aug-26 10:33N 34°40' E 135°11'1 1.2
2015-Aug-26 09:33N 34°39' E 135°11'1 0.7
2015-Aug-26 08:33N 34°39' E 135°11'2 2.1
2015-Aug-26 07:32N 34°41' E 135°11'3 3.3
2015-Aug-26 06:33N 34°38' E 135°10'3 3.1
2015-Aug-26 05:31N 34°41' E 135°11'0 0.5
2015-Aug-26 04:34N 34°40' E 135°11'3 2.8
2015-Aug-26 03:33N 34°38' E 135°10'3 2.9
2015-Aug-26 02:30N 34°41' E 135°11'0 0.0
2015-Aug-26 01:30N 34°41' E 135°11'0 0.0
2015-Aug-26 00:30N 34°41' E 135°11'0 0.0
2015-Aug-25 23:30N 34°41' E 135°11'0 0.0
2015-Aug-25 22:30N 34°41' E 135°11'0 0.0
2015-Aug-25 21:30N 34°41' E 135°11'0 0.0
2015-Aug-25 20:30N 34°41' E 135°11'0 0.0
2015-Aug-25 19:30N 34°41' E 135°11'0 0.0
2015-Aug-25 18:24N 34°41' E 135°11'0 0.0
2015-Aug-25 17:30N 34°41' E 135°11'0 0.0
2015-Aug-25 16:30N 34°41' E 135°11'0 0.0
2015-Aug-25 15:30N 34°41' E 135°11'0 0.0
2015-Aug-25 14:30N 34°41' E 135°11'0 0.0
2015-Aug-25 13:30N 34°41' E 135°11'0 0.0
2015-Aug-25 12:30N 34°41' E 135°11'3 3.0
2015-Aug-25 11:33N 34°38' E 135°11'2 2.3
2015-Aug-25 10:33N 34°40' E 135°11'0 0.2
2015-Aug-25 09:33N 34°40' E 135°12'1 1.3
2015-Aug-25 08:33N 34°39' E 135°11'2 1.8
2015-Aug-25 07:31N 34°41' E 135°11'3 3.1
2015-Aug-25 06:34N 34°38' E 135°10'3 2.9
2015-Aug-25 05:31N 34°41' E 135°11'0 0.4
2015-Aug-25 04:33N 34°41' E 135°11'3 2.7
2015-Aug-25 03:33N 34°38' E 135°10'3 2.4
2015-Aug-25 02:23N 34°41' E 135°11'0 0.0
2015-Aug-24 12:24N 34°41' E 135°11'3 3.6
2015-Aug-24 11:33N 34°38' E 135°11'2 2.1
2015-Aug-24 10:33N 34°40' E 135°11'1 0.7
2015-Aug-24 09:33N 34°39' E 135°11'1 0.7
2015-Aug-24 08:33N 34°39' E 135°11'2 1.9
2015-Aug-24 07:25N 34°41' E 135°11'3 3.8
2015-Aug-24 06:33N 34°38' E 135°09'3 3.2
2015-Aug-24 05:33N 34°41' E 135°11'0 0.3
2015-Aug-24 04:33N 34°41' E 135°11'3 3.3
2015-Aug-24 03:33N 34°38' E 135°09'3 3.4
2015-Aug-24 02:33N 34°41' E 135°11'0 0.0
2015-Aug-24 01:33N 34°41' E 135°11'0 0.0
2015-Aug-24 00:33N 34°41' E 135°11'0 0.0
2015-Aug-23 23:33N 34°41' E 135°11'0 0.0
2015-Aug-23 22:33N 34°41' E 135°11'0 0.0
2015-Aug-23 21:33N 34°41' E 135°11'0 0.0
2015-Aug-23 20:33N 34°41' E 135°11'0 0.0
2015-Aug-23 19:33N 34°41' E 135°11'0 0.0
2015-Aug-23 18:33N 34°41' E 135°11'0 0.0
2015-Aug-23 17:33N 34°41' E 135°11'0 0.0
2015-Aug-23 16:33N 34°41' E 135°11'0 0.0
2015-Aug-23 15:33N 34°41' E 135°11'0 0.0
2015-Aug-23 14:33N 34°41' E 135°11'0 0.0
2015-Aug-23 13:33N 34°41' E 135°11'0 0.0
2015-Aug-23 12:33N 34°41' E 135°11'3 2.9
2015-Aug-23 11:33N 34°38' E 135°10'2 2.3
2015-Aug-23 10:33N 34°40' E 135°11'2 1.6
2015-Aug-23 09:33N 34°39' E 135°11'0 0.2
2015-Aug-23 08:33N 34°39' E 135°11'2 1.9
2015-Aug-23 07:28N 34°41' E 135°11'3 3.8
2015-Aug-23 06:33N 34°38' E 135°09'3 3.3
2015-Aug-23 05:32N 34°41' E 135°11'1 0.8
2015-Aug-23 04:33N 34°40' E 135°12'3 2.7
2015-Aug-23 03:33N 34°38' E 135°09'1 0.1
2015-Aug-22 11:33N 34°38' E 135°10'2 2.4
2015-Aug-22 10:33N 34°40' E 135°11'1 1.0
2015-Aug-22 09:33N 34°39' E 135°11'1 0.6
2015-Aug-22 08:33N 34°39' E 135°11'2 2.1
2015-Aug-22 07:32N 34°41' E 135°11'3 3.5
2015-Aug-22 06:33N 34°38' E 135°10'3 3.3
2015-Aug-22 05:29N 34°41' E 135°11'1 0.9
2015-Aug-22 04:33N 34°40' E 135°12'3 2.5
2015-Aug-22 03:33N 34°38' E 135°09'3 0.2
2015-Aug-21 12:08N 34°41' E 135°11'3 5.6
2015-Aug-21 11:33N 34°38' E 135°10'3 2.9
2015-Aug-21 10:33N 34°40' E 135°11'1 1.0
2015-Aug-21 09:33N 34°39' E 135°11'1 0.7
2015-Aug-21 08:33N 34°39' E 135°11'2 2.0
2015-Aug-21 07:28N 34°41' E 135°11'3 3.4
2015-Aug-21 06:33N 34°38' E 135°10'3 3.1
2015-Aug-21 05:33N 34°41' E 135°11'1 0.9
2015-Aug-21 04:33N 34°40' E 135°11'3 2.6
2015-Aug-21 03:33N 34°38' E 135°09'1 0.1
2015-Aug-20 11:33N 34°38' E 135°11'2 1.8
2015-Aug-20 10:33N 34°40' E 135°11'1 0.8
2015-Aug-20 09:33N 34°39' E 135°11'0 0.4
2015-Aug-20 08:32N 34°39' E 135°11'2 2.0
2015-Aug-20 07:31N 34°41' E 135°11'3 3.0
2015-Aug-20 06:33N 34°38' E 135°10'3 2.7
2015-Aug-20 05:30N 34°41' E 135°11'0 0.3
2015-Aug-20 04:33N 34°41' E 135°11'3 3.3
2015-Aug-20 03:33N 34°38' E 135°09'1 0.1
2015-Aug-19 11:33N 34°38' E 135°10'2 2.3
2015-Aug-19 10:33N 34°40' E 135°11'0 0.4
2015-Aug-19 09:33N 34°39' E 135°11'1 1.0
2015-Aug-19 08:33N 34°39' E 135°11'2 2.1
2015-Aug-19 07:31N 34°41' E 135°11'3 3.1
2015-Aug-19 06:33N 34°38' E 135°10'3 2.9
2015-Aug-19 05:31N 34°41' E 135°11'0 0.2
2015-Aug-19 04:33N 34°41' E 135°11'3 3.2
2015-Aug-19 03:33N 34°38' E 135°09'3 0.1
2015-Aug-17 18:28N 34°41' E 135°11'0 0.0
2015-Aug-17 17:28N 34°41' E 135°11'0 0.0
2015-Aug-17 16:28N 34°41' E 135°11'0 0.0
2015-Aug-17 15:28N 34°41' E 135°11'0 0.0
2015-Aug-17 14:28N 34°41' E 135°11'0 0.0
2015-Aug-17 13:28N 34°41' E 135°11'0 0.0
2015-Aug-17 12:28N 34°41' E 135°11'3 3.1
2015-Aug-17 11:33N 34°38' E 135°11'2 1.8
2015-Aug-17 10:33N 34°40' E 135°11'1 0.5
2015-Aug-17 09:33N 34°39' E 135°11'1 0.8
2015-Aug-17 08:33N 34°39' E 135°11'2 2.2
2015-Aug-17 07:33N 34°41' E 135°11'3 2.7
2015-Aug-17 06:33N 34°38' E 135°10'3 2.6
2015-Aug-17 05:31N 34°41' E 135°11'0 0.4
2015-Aug-17 04:33N 34°40' E 135°11'  

Dump ship's entire track history